Time;durP1;ratioP1;P1;durP2;ratioP2;P2;SDS_P1;SDS_P2;PMS_P1;PMS_P2;Temp;Humidity;BMP_temperature;BMP_pressure;BME280_temperature;BME280_humidity;BME280_pressure;Samples;Min_cycle;Max_cycle;Signal;HPM_P1;HPM_P2
2022/12/12 00:00:24;;;;;;;0.55;0.55;;;-0.20;99.90;;;;;;4421929;32;20148;-65
2022/12/12 00:02:49;;;;;;;0.50;0.50;;;-0.30;99.90;;;;;;4417301;32;20069;-63
2022/12/12 00:05:17;;;;;;;0.60;0.60;;;-0.40;99.90;;;;;;4401950;32;20486;-66
2022/12/12 00:07:43;;;;;;;0.70;0.70;;;-0.40;99.90;;;;;;4398322;32;20525;-66
2022/12/12 00:10:09;;;;;;;0.80;0.80;;;-0.40;99.90;;;;;;4420176;32;20078;-66
2022/12/12 00:12:35;;;;;;;0.50;0.50;;;-0.50;99.90;;;;;;4406568;32;20619;-66
2022/12/12 00:15:01;;;;;;;3.03;2.35;;;-0.50;99.90;;;;;;4418392;32;20410;-64
2022/12/12 00:17:26;;;;;;;0.65;0.65;;;-0.60;99.90;;;;;;4422470;32;20088;-65
2022/12/12 00:19:52;;;;;;;1.35;0.95;;;-0.60;99.90;;;;;;4420832;32;20081;-65
2022/12/12 00:22:17;;;;;;;1.42;0.93;;;-0.60;99.90;;;;;;4419907;32;20128;-65
2022/12/12 00:24:43;;;;;;;0.57;0.57;;;-0.50;99.90;;;;;;4421032;32;20108;-65
2022/12/12 00:27:08;;;;;;;3.47;1.05;;;-0.50;99.90;;;;;;4421728;32;20375;-65
2022/12/12 00:29:34;;;;;;;1.42;0.65;;;-0.60;99.90;;;;;;4416585;32;20097;-68
2022/12/12 00:31:59;;;;;;;0.43;0.43;;;-0.70;99.90;;;;;;4417330;32;20332;-65
2022/12/12 00:34:25;;;;;;;0.73;0.73;;;-0.80;99.90;;;;;;4389824;32;20061;-65
2022/12/12 00:36:50;;;;;;;0.60;0.60;;;-0.80;99.90;;;;;;4405070;32;20116;-66
2022/12/12 00:39:17;;;;;;;3.00;2.12;;;-0.80;99.90;;;;;;4418379;32;20065;-66
2022/12/12 00:41:42;;;;;;;0.70;0.70;;;-0.80;99.90;;;;;;4421853;32;20121;-65
2022/12/12 00:44:09;;;;;;;0.50;0.50;;;-0.70;99.90;;;;;;4421129;32;20174;-65
2022/12/12 00:46:34;;;;;;;2.80;2.53;;;-0.60;99.90;;;;;;4420893;32;20143;-66
2022/12/12 00:49:00;;;;;;;1.33;1.00;;;-0.60;99.90;;;;;;4422986;32;20074;-66
2022/12/12 00:51:28;;;;;;;0.68;0.68;;;-0.60;99.90;;;;;;4424146;32;20450;-66
2022/12/12 00:53:53;;;;;;;0.40;0.40;;;-0.50;99.90;;;;;;4408854;32;20468;-65
2022/12/12 00:56:22;;;;;;;0.43;0.43;;;-0.40;99.90;;;;;;4421928;32;20060;-67
2022/12/12 00:58:48;;;;;;;0.90;0.90;;;-0.50;99.90;;;;;;4420416;32;20094;-66
2022/12/12 01:01:17;;;;;;;0.50;0.50;;;-0.60;99.90;;;;;;4408144;32;20140;-66
2022/12/12 01:03:43;;;;;;;3.42;1.02;;;-0.60;99.90;;;;;;4411983;32;20183;-66
2022/12/12 01:06:09;;;;;;;9.35;2.45;;;-0.50;99.90;;;;;;4403528;32;20408;-65
2022/12/12 01:08:35;;;;;;;0.40;0.40;;;-0.50;99.90;;;;;;4419098;32;20072;-65
2022/12/12 01:11:00;;;;;;;0.55;0.55;;;-0.60;99.90;;;;;;4415289;32;20453;-67
2022/12/12 01:13:26;;;;;;;0.50;0.50;;;-0.60;99.90;;;;;;4410188;32;20065;-67
2022/12/12 01:15:52;;;;;;;0.85;0.85;;;-0.60;99.90;;;;;;4419021;32;20105;-67
2022/12/12 01:18:18;;;;;;;0.65;0.65;;;-0.50;99.90;;;;;;4422231;32;20162;-66
2022/12/12 01:20:43;;;;;;;0.47;0.47;;;-0.50;99.90;;;;;;4422037;32;20074;-65
2022/12/12 01:23:09;;;;;;;0.95;0.95;;;-0.50;99.90;;;;;;4423601;32;20135;-63
2022/12/12 01:25:35;;;;;;;1.27;0.85;;;-0.40;99.90;;;;;;4419900;32;20528;-65
2022/12/12 01:28:00;;;;;;;0.60;0.60;;;-0.40;99.90;;;;;;4422736;32;20065;-65
2022/12/12 01:30:26;;;;;;;0.80;0.80;;;-0.40;99.90;;;;;;4418863;32;20335;-65
2022/12/12 01:32:51;;;;;;;0.52;0.52;;;-0.40;99.90;;;;;;4416561;32;20081;-64
2022/12/12 01:35:18;;;;;;;0.60;0.60;;;-0.50;99.90;;;;;;4402746;32;20056;-65
2022/12/12 01:37:43;;;;;;;0.50;0.50;;;-0.40;99.90;;;;;;4412705;32;20128;-65
2022/12/12 01:40:15;;;;;;;0.40;0.40;;;-0.30;99.90;;;;;;4420254;32;20080;-67
2022/12/12 01:42:41;;;;;;;0.60;0.60;;;-0.40;99.90;;;;;;4421998;32;20187;-66
2022/12/12 01:45:07;;;;;;;0.90;0.90;;;-0.40;99.90;;;;;;4420916;32;20152;-66
2022/12/12 01:47:33;;;;;;;0.50;0.50;;;-0.40;99.90;;;;;;4422904;32;20830;-67
2022/12/12 01:50:06;;;;;;;0.50;0.50;;;-0.40;99.90;;;;;;4423446;32;20066;-67
2022/12/12 01:52:39;;;;;;;0.47;0.47;;;-0.40;99.90;;;;;;4408598;32;20074;-67
2022/12/12 01:55:06;;;;;;;0.60;0.60;;;-0.40;99.90;;;;;;4407984;32;20170;-66
2022/12/12 01:57:37;;;;;;;4.72;2.75;;;-0.30;99.90;;;;;;4424494;32;20066;-67
2022/12/12 02:00:07;;;;;;;0.50;0.50;;;-0.20;99.90;;;;;;4407095;32;20434;-66
2022/12/12 02:02:33;;;;;;;0.50;0.50;;;-0.20;99.90;;;;;;4407011;32;20085;-65
2022/12/12 02:05:03;;;;;;;1.15;1.00;;;-0.20;99.90;;;;;;4404496;32;20081;-64
2022/12/12 02:07:29;;;;;;;1.30;1.08;;;-0.30;99.90;;;;;;4410314;32;20061;-66
2022/12/12 02:09:54;;;;;;;1.00;1.00;;;-0.30;99.90;;;;;;4425289;32;20504;-67
2022/12/12 02:12:19;;;;;;;0.70;0.70;;;-0.30;99.90;;;;;;4408688;32;20074;-66
2022/12/12 02:14:49;;;;;;;0.50;0.50;;;-0.30;99.90;;;;;;4420384;32;20544;-66
2022/12/12 02:17:24;;;;;;;2.10;0.80;;;-0.40;99.90;;;;;;4421293;32;20176;-65
2022/12/12 02:20:30;;;;;;;0.57;0.57;;;-0.30;99.90;;;;;;4423130;32;20070;-66
2022/12/12 02:23:17;;;;;;;1.50;1.15;;;-0.30;99.90;;;;;;4410756;32;20093;-66
2022/12/12 02:26:04;;;;;;;0.60;0.60;;;-0.40;99.90;;;;;;4412714;32;20081;-66
2022/12/12 02:28:47;;;;;;;1.00;1.00;;;-0.40;99.90;;;;;;4410843;32;20077;-66
2022/12/12 02:31:28;;;;;;;5.47;1.50;;;-0.40;99.90;;;;;;4416160;32;20082;-66
2022/12/12 02:34:22;;;;;;;0.70;0.70;;;-0.40;99.90;;;;;;4411111;32;20512;-65
2022/12/12 02:37:00;;;;;;;0.90;0.90;;;-0.30;99.90;;;;;;4395942;32;20077;-66
2022/12/12 02:39:56;;;;;;;0.85;0.85;;;-0.30;99.90;;;;;;4410154;32;20081;-66
2022/12/12 02:42:30;;;;;;;1.30;1.20;;;-0.30;99.90;;;;;;4410845;32;20098;-66
2022/12/12 02:45:02;;;;;;;1.17;1.10;;;-0.20;99.90;;;;;;4421299;32;20074;-66
2022/12/12 02:47:31;;;;;;;0.77;0.77;;;-0.20;99.90;;;;;;4423509;32;20116;-67
2022/12/12 02:50:04;;;;;;;0.88;0.88;;;-0.10;99.90;;;;;;4408005;32;20116;-66
2022/12/12 02:52:30;;;;;;;0.50;0.50;;;-0.10;99.90;;;;;;4419641;32;20147;-66
2022/12/12 02:54:56;;;;;;;0.40;0.40;;;-0.10;99.90;;;;;;4408363;32;20061;-64
2022/12/12 02:57:24;;;;;;;0.40;0.40;;;-0.20;99.90;;;;;;4408473;32;20182;-67
2022/12/12 03:00:02;;;;;;;0.50;0.50;;;-0.10;99.90;;;;;;4408387;32;20089;-65
2022/12/12 03:02:38;;;;;;;3.15;1.67;;;-0.10;99.90;;;;;;4421534;32;20204;-64
2022/12/12 03:07:46;;;;;;;0.60;0.60;;;-0.10;99.90;;;;;;4404045;32;20093;-63
2022/12/12 03:08:43;;;;;;;0.50;0.50;;;-0.10;99.90;;;;;;4397668;32;20089;-64
2022/12/12 03:11:13;;;;;;;0.50;0.50;;;-0.10;99.90;;;;;;4412412;32;20405;-65
2022/12/12 03:14:03;;;;;;;0.60;0.60;;;-0.10;99.90;;;;;;4421955;32;20599;-65
2022/12/12 03:16:34;;;;;;;0.93;0.93;;;0.00;99.90;;;;;;4408884;32;20069;-64
2022/12/12 03:19:19;;;;;;;;;;;0.10;99.90;;;;;;4422430;32;20545;-65
2022/12/12 03:21:53;;;;;;;0.50;0.50;;;-0.10;99.90;;;;;;4410315;32;19956;-65
2022/12/12 03:24:29;;;;;;;0.40;0.40;;;0.00;99.90;;;;;;4407974;32;20097;-65
2022/12/12 03:27:19;;;;;;;0.60;0.60;;;0.00;99.90;;;;;;4423049;32;20114;-65
2022/12/12 03:29:51;;;;;;;0.50;0.50;;;0.00;99.90;;;;;;4405337;32;20478;-65
2022/12/12 03:32:23;;;;;;;0.60;0.60;;;0.10;99.90;;;;;;4422826;32;20273;-66
2022/12/12 03:34:55;;;;;;;0.60;0.60;;;0.00;99.90;;;;;;4405267;32;20117;-65
2022/12/12 03:37:27;;;;;;;0.50;0.50;;;0.10;99.90;;;;;;4409987;32;20073;-64
2022/12/12 03:40:04;;;;;;;0.40;0.40;;;0.10;99.90;;;;;;4420958;32;20065;-65
2022/12/12 03:42:52;;;;;;;0.50;0.50;;;0.20;99.90;;;;;;4409869;32;20073;-66
2022/12/12 03:45:36;;;;;;;0.80;0.80;;;0.10;99.90;;;;;;4420330;32;20082;-65
2022/12/12 03:48:09;;;;;;;1.95;1.20;;;0.20;99.90;;;;;;4420536;32;20069;-65
2022/12/12 03:50:44;;;;;;;1.33;0.98;;;0.30;99.90;;;;;;4420938;32;20128;-66
2022/12/12 03:53:20;;;;;;;4.18;1.25;;;0.30;99.90;;;;;;4406601;32;20153;-66
2022/12/12 03:55:56;;;;;;;0.50;0.50;;;0.30;99.90;;;;;;4421741;32;20627;-66
2022/12/12 03:58:29;;;;;;;0.75;0.75;;;0.30;99.90;;;;;;4421742;32;20077;-66
2022/12/12 04:00:57;;;;;;;0.80;0.80;;;0.30;99.90;;;;;;4422267;32;20566;-66
2022/12/12 04:03:31;;;;;;;0.60;0.60;;;0.30;99.90;;;;;;4415366;32;20061;-65
2022/12/12 04:06:36;;;;;;;1.48;1.37;;;0.40;99.90;;;;;;4402837;32;20094;-66
2022/12/12 04:12:58;;;;;;;0.50;0.50;;;0.40;99.90;;;;;;4409808;32;21281;-67
2022/12/12 04:14:59;;;;;;;1.30;1.23;;;0.40;99.90;;;;;;4410233;32;20545;-67
2022/12/12 04:17:36;;;;;;;0.82;0.82;;;0.40;99.90;;;;;;4416437;32;20074;-64
2022/12/12 04:23:19;;;;;;;0.62;0.62;;;0.50;99.90;;;;;;4408619;32;20534;-66
2022/12/12 04:26:56;;;;;;;0.70;0.70;;;0.60;99.90;;;;;;4421498;32;20080;-65
2022/12/12 04:28:53;;;;;;;0.52;0.52;;;0.60;99.90;;;;;;4405980;32;20418;-65
2022/12/12 04:31:24;;;;;;;0.50;0.50;;;0.50;99.90;;;;;;4420193;32;20085;-66
2022/12/12 04:33:51;;;;;;;0.50;0.50;;;0.50;99.90;;;;;;4393352;32;20742;-66
2022/12/12 04:36:21;;;;;;;0.60;0.60;;;0.60;99.90;;;;;;4395999;32;20069;-64
2022/12/12 04:38:48;;;;;;;0.50;0.50;;;0.50;99.90;;;;;;4420892;32;20089;-66
2022/12/12 04:41:16;;;;;;;0.57;0.47;;;0.60;99.90;;;;;;4406162;32;20102;-66
2022/12/12 04:43:43;;;;;;;0.60;0.60;;;0.50;99.90;;;;;;4423364;32;20134;-66
2022/12/12 04:46:14;;;;;;;0.55;0.55;;;0.40;99.90;;;;;;4406532;32;20137;-66
2022/12/12 04:48:55;;;;;;;0.85;0.85;;;0.50;99.90;;;;;;4422018;32;20066;-65
2022/12/12 04:51:27;;;;;;;0.50;0.50;;;0.50;99.90;;;;;;4421164;32;20090;-66
2022/12/12 04:54:04;;;;;;;1.95;1.12;;;0.50;99.90;;;;;;4419584;32;20085;-66
2022/12/12 04:56:33;;;;;;;0.40;0.40;;;0.60;99.90;;;;;;4422187;32;20069;-66
2022/12/12 04:58:58;;;;;;;0.93;0.93;;;0.60;99.90;;;;;;4420193;32;20089;-66
2022/12/12 05:01:36;;;;;;;0.50;0.50;;;0.60;99.90;;;;;;4421053;32;20081;-65
2022/12/12 05:04:08;;;;;;;0.52;0.52;;;0.60;99.90;;;;;;4391398;32;20071;-65
2022/12/12 05:06:42;;;;;;;0.80;0.80;;;0.70;99.90;;;;;;4390071;32;20076;-64
2022/12/12 05:09:10;;;;;;;0.40;0.40;;;0.70;99.90;;;;;;4408258;32;20053;-66
2022/12/12 05:11:36;;;;;;;0.77;0.77;;;0.80;99.90;;;;;;4419592;32;20073;-66
2022/12/12 05:14:02;;;;;;;0.77;0.77;;;0.70;99.90;;;;;;4422536;32;20097;-66
2022/12/12 05:16:33;;;;;;;0.35;0.35;;;0.70;99.90;;;;;;4421860;32;20081;-65
2022/12/12 05:18:58;;;;;;;;;;;0.80;99.90;;;;;;4408181;32;20090;-65
2022/12/12 05:21:24;;;;;;;0.50;0.50;;;0.80;99.90;;;;;;4415237;32;19965;-62
2022/12/12 05:23:50;;;;;;;0.40;0.40;;;0.70;99.90;;;;;;4383167;32;20085;-64
2022/12/12 05:26:25;;;;;;;0.45;0.45;;;0.70;99.90;;;;;;4363279;32;20090;-63
2022/12/12 05:28:51;;;;;;;0.70;0.70;;;0.80;99.90;;;;;;4373778;32;20311;-63
2022/12/12 05:31:17;;;;;;;0.40;0.40;;;0.70;99.90;;;;;;4386142;32;20109;-64
2022/12/12 05:33:43;;;;;;;0.65;0.65;;;0.70;99.90;;;;;;4375236;32;20180;-63
2022/12/12 05:36:09;;;;;;;0.40;0.40;;;0.70;99.90;;;;;;4373272;32;20077;-64
2022/12/12 05:38:35;;;;;;;0.50;0.50;;;0.70;99.90;;;;;;4399905;32;20528;-64
2022/12/12 05:41:01;;;;;;;0.70;0.62;;;0.90;99.90;;;;;;4408178;32;20069;-66
2022/12/12 05:43:26;;;;;;;2.08;0.90;;;0.90;99.90;;;;;;4425641;32;20140;-67
2022/12/12 05:45:52;;;;;;;0.40;0.40;;;0.80;99.90;;;;;;4422291;32;20457;-66
2022/12/12 05:48:17;;;;;;;0.47;0.47;;;0.80;99.90;;;;;;4424611;32;20111;-67
2022/12/12 05:50:43;;;;;;;0.50;0.50;;;0.90;99.90;;;;;;4409937;32;20061;-64
2022/12/12 05:53:10;;;;;;;0.50;0.50;;;0.90;99.90;;;;;;4379495;32;20400;-63
2022/12/12 05:55:35;;;;;;;0.43;0.43;;;0.90;99.90;;;;;;4371313;32;20842;-64
2022/12/12 05:58:01;;;;;;;0.50;0.50;;;0.90;99.90;;;;;;4410908;32;20070;-65
2022/12/12 06:00:27;;;;;;;0.68;0.68;;;1.00;99.90;;;;;;4404546;32;20139;-63
2022/12/12 06:02:52;;;;;;;0.40;0.40;;;0.90;99.90;;;;;;4402399;32;20144;-63
2022/12/12 06:05:18;;;;;;;0.90;0.90;;;0.90;99.90;;;;;;4362762;32;20173;-63
2022/12/12 06:07:43;;;;;;;1.05;0.93;;;0.90;99.90;;;;;;4381242;32;20345;-64
2022/12/12 06:10:10;;;;;;;0.55;0.47;;;1.00;99.90;;;;;;4383640;32;20399;-64
2022/12/12 06:12:35;;;;;;;0.30;0.30;;;0.90;99.90;;;;;;4382090;32;21052;-63
2022/12/12 06:15:01;;;;;;;3.20;1.27;;;0.90;99.90;;;;;;4376954;32;20201;-64
2022/12/12 06:17:26;;;;;;;0.40;0.40;;;0.90;99.90;;;;;;4373348;32;20100;-62
2022/12/12 06:19:52;;;;;;;0.47;0.47;;;0.90;99.90;;;;;;4335027;32;20733;-65
2022/12/12 06:22:17;;;;;;;0.40;0.40;;;0.90;99.90;;;;;;4348260;32;20442;-64
2022/12/12 06:24:44;;;;;;;0.40;0.40;;;0.90;99.90;;;;;;4309068;32;20346;-64
2022/12/12 06:27:09;;;;;;;0.45;0.45;;;0.90;99.90;;;;;;4341155;32;20599;-64
2022/12/12 06:29:36;;;;;;;1.85;1.05;;;0.90;99.90;;;;;;4331695;32;20146;-63
2022/12/12 06:32:01;;;;;;;0.50;0.50;;;0.90;99.90;;;;;;4311687;32;20312;-64
2022/12/12 06:34:28;;;;;;;0.50;0.50;;;0.90;99.90;;;;;;4334956;32;20321;-64
2022/12/12 06:36:54;;;;;;;0.47;0.47;;;0.90;99.90;;;;;;4348389;32;20318;-64
2022/12/12 06:39:19;;;;;;;0.40;0.40;;;0.90;99.90;;;;;;4354568;32;20310;-64
2022/12/12 06:41:45;;;;;;;0.40;0.40;;;0.90;99.90;;;;;;4358913;32;20341;-64
2022/12/12 06:44:11;;;;;;;0.73;0.73;;;0.90;99.90;;;;;;4364446;32;20128;-65
2022/12/12 06:46:36;;;;;;;0.50;0.50;;;0.80;99.90;;;;;;4376818;32;20114;-63
2022/12/12 06:49:08;;;;;;;0.50;0.50;;;0.80;99.90;;;;;;4378506;32;20821;-64
2022/12/12 06:51:36;;;;;;;0.32;0.32;;;0.90;99.90;;;;;;4373792;32;20251;-64
2022/12/12 06:54:01;;;;;;;3.80;1.60;;;0.80;99.90;;;;;;4374912;32;20101;-64
2022/12/12 06:56:27;;;;;;;0.60;0.60;;;0.80;99.90;;;;;;4386708;32;20081;-64
2022/12/12 06:58:54;;;;;;;0.50;0.50;;;0.80;99.90;;;;;;4381241;32;20329;-64
2022/12/12 07:01:21;;;;;;;0.40;0.40;;;0.80;99.90;;;;;;4366541;32;20412;-64
2022/12/12 07:03:49;;;;;;;0.45;0.45;;;0.80;99.90;;;;;;4316854;32;20212;-64
2022/12/12 07:06:15;;;;;;;0.40;0.40;;;0.80;99.90;;;;;;4363948;32;20155;-64
2022/12/12 07:08:41;;;;;;;0.50;0.50;;;0.80;99.90;;;;;;4345332;32;20108;-63
2022/12/12 07:11:10;;;;;;;0.80;0.80;;;0.80;99.90;;;;;;4372085;32;20107;-63
2022/12/12 07:13:36;;;;;;;0.70;0.70;;;0.80;99.90;;;;;;4378480;32;21791;-64
2022/12/12 07:16:01;;;;;;;0.50;0.50;;;0.70;99.90;;;;;;4373465;32;20085;-65
2022/12/12 07:18:27;;;;;;;0.50;0.50;;;0.70;99.90;;;;;;4374383;32;21568;-64
2022/12/12 07:20:52;;;;;;;0.40;0.40;;;0.80;99.90;;;;;;4360185;32;20771;-64
2022/12/12 07:23:18;;;;;;;0.60;0.60;;;0.80;99.90;;;;;;4375027;32;20105;-65
2022/12/12 07:25:44;;;;;;;0.40;0.40;;;0.90;99.90;;;;;;4368810;32;20191;-64
2022/12/12 07:28:12;;;;;;;0.40;0.40;;;0.90;99.90;;;;;;4384711;32;20310;-64
2022/12/12 07:30:39;;;;;;;0.40;0.40;;;0.80;99.90;;;;;;4350154;32;87042;-66
2022/12/12 07:33:05;;;;;;;0.40;0.40;;;0.90;99.90;;;;;;4342993;32;21421;-66
2022/12/12 07:35:31;;;;;;;0.32;0.32;;;0.80;99.90;;;;;;4361067;32;20883;-64
2022/12/12 07:37:56;;;;;;;0.40;0.40;;;0.80;99.90;;;;;;4366788;32;20104;-65
2022/12/12 07:40:22;;;;;;;0.40;0.40;;;0.90;99.90;;;;;;4373422;32;20616;-65
2022/12/12 07:42:48;;;;;;;0.47;0.47;;;0.90;99.90;;;;;;4386701;32;20094;-64
2022/12/12 07:45:13;;;;;;;0.40;0.40;;;0.90;99.90;;;;;;4385679;32;20160;-64
2022/12/12 07:47:39;;;;;;;0.60;0.60;;;0.90;99.90;;;;;;4390439;32;20309;-64
2022/12/12 07:50:05;;;;;;;0.30;0.30;;;0.90;99.90;;;;;;4373450;32;20109;-64
2022/12/12 07:52:30;;;;;;;0.80;0.80;;;0.90;99.90;;;;;;4374067;32;20322;-64
2022/12/12 07:54:56;;;;;;;0.57;0.57;;;1.00;99.90;;;;;;4379485;32;20100;-65
2022/12/12 07:57:21;;;;;;;0.40;0.40;;;1.00;99.90;;;;;;4371476;32;20663;-66
2022/12/12 07:59:47;;;;;;;0.70;0.70;;;1.00;99.90;;;;;;4367410;32;20271;-65
2022/12/12 08:02:12;;;;;;;0.40;0.40;;;1.00;99.90;;;;;;4341819;32;20168;-63
2022/12/12 08:04:38;;;;;;;0.70;0.70;;;1.00;99.90;;;;;;4355503;32;20253;-64
2022/12/12 08:07:03;;;;;;;0.65;0.65;;;1.10;99.90;;;;;;4359312;32;20104;-62
2022/12/12 08:09:29;;;;;;;0.73;0.73;;;1.00;99.90;;;;;;4383019;32;20081;-63
2022/12/12 08:11:57;;;;;;;0.47;0.47;;;1.00;99.90;;;;;;4372366;32;20570;-63
2022/12/12 08:14:22;;;;;;;1.80;0.90;;;1.10;99.90;;;;;;4363715;32;20106;-66
2022/12/12 08:16:48;;;;;;;3.85;0.90;;;1.10;99.90;;;;;;4387669;32;20217;-64
2022/12/12 08:19:14;;;;;;;0.40;0.40;;;1.10;99.90;;;;;;4354669;32;20710;-64
2022/12/12 08:21:41;;;;;;;0.50;0.50;;;1.10;99.90;;;;;;4360117;32;20336;-64
2022/12/12 08:24:07;;;;;;;0.40;0.40;;;1.10;99.90;;;;;;4359115;32;20081;-65
2022/12/12 08:26:33;;;;;;;0.95;0.75;;;1.20;99.90;;;;;;4382621;32;20105;-64
2022/12/12 08:28:58;;;;;;;0.50;0.50;;;1.20;99.90;;;;;;4371547;32;20158;-64
2022/12/12 08:31:25;;;;;;;0.40;0.40;;;1.10;99.90;;;;;;4361425;32;20160;-63
2022/12/12 08:33:50;;;;;;;0.40;0.40;;;1.00;99.90;;;;;;4326181;32;21460;-63
2022/12/12 08:36:19;;;;;;;0.85;0.85;;;1.00;99.90;;;;;;4345426;32;21349;-64
2022/12/12 08:38:45;;;;;;;0.82;0.82;;;1.00;99.90;;;;;;4357159;32;20918;-63
2022/12/12 08:41:11;;;;;;;0.85;0.73;;;1.00;99.90;;;;;;4384912;32;20097;-64
2022/12/12 08:43:38;;;;;;;0.60;0.60;;;0.90;99.90;;;;;;4374439;32;20792;-63
2022/12/12 08:46:06;;;;;;;0.50;0.50;;;1.00;99.90;;;;;;4351092;32;20229;-65
2022/12/12 08:48:32;;;;;;;0.73;0.73;;;1.00;99.90;;;;;;4361677;32;20149;-63
2022/12/12 08:50:58;;;;;;;0.40;0.40;;;1.00;99.90;;;;;;4360693;32;20114;-63
2022/12/12 08:53:24;;;;;;;0.40;0.40;;;1.10;99.90;;;;;;4354088;32;20076;-64
2022/12/12 08:55:50;;;;;;;0.43;0.43;;;0.90;99.90;;;;;;4388655;32;20444;-64
2022/12/12 08:58:16;;;;;;;0.40;0.40;;;0.90;99.90;;;;;;4387268;32;20668;-65
2022/12/12 09:00:41;;;;;;;0.50;0.50;;;1.00;99.90;;;;;;4357152;32;20735;-63
2022/12/12 09:03:07;;;;;;;5.93;2.05;;;1.10;99.90;;;;;;4353617;32;21088;-64
2022/12/12 09:05:33;;;;;;;0.40;0.40;;;1.10;99.90;;;;;;4369373;32;20077;-64
2022/12/12 09:08:00;;;;;;;0.40;0.40;;;1.10;99.90;;;;;;4369911;32;20824;-64
2022/12/12 09:10:27;;;;;;;0.40;0.40;;;1.10;99.90;;;;;;4390898;32;21265;-64
2022/12/12 09:12:53;;;;;;;0.43;0.43;;;1.10;99.90;;;;;;4375002;32;20080;-65
2022/12/12 09:15:19;;;;;;;0.30;0.30;;;1.10;99.90;;;;;;4366511;32;20350;-64
2022/12/12 09:17:44;;;;;;;1.05;1.02;;;0.90;99.90;;;;;;4385150;32;20093;-64
2022/12/12 09:20:10;;;;;;;0.40;0.40;;;0.90;99.90;;;;;;4376693;32;20494;-64
2022/12/12 09:22:36;;;;;;;0.40;0.40;;;0.90;99.90;;;;;;4378851;32;20085;-64
2022/12/12 09:25:01;;;;;;;0.35;0.35;;;0.90;99.90;;;;;;4371181;32;21022;-64
2022/12/12 09:27:27;;;;;;;0.40;0.40;;;0.90;99.90;;;;;;4371093;32;20085;-65
2022/12/12 09:29:52;;;;;;;0.43;0.43;;;0.90;99.90;;;;;;4356437;32;20085;-65
2022/12/12 09:32:18;;;;;;;0.95;0.93;;;0.90;99.90;;;;;;4365266;32;20352;-65
2022/12/12 09:34:43;;;;;;;0.40;0.40;;;0.90;99.90;;;;;;4353857;32;20236;-65
2022/12/12 09:37:09;;;;;;;0.70;0.70;;;0.90;99.90;;;;;;4366749;32;20831;-65
2022/12/12 09:39:35;;;;;;;0.50;0.50;;;1.00;99.90;;;;;;4380873;32;20362;-65
2022/12/12 09:42:26;;;;;;;0.45;0.45;;;1.10;99.90;;;;;;4384035;32;20134;-65
2022/12/12 09:44:59;;;;;;;0.50;0.50;;;1.20;99.90;;;;;;4380147;32;20323;-66
2022/12/12 09:47:50;;;;;;;0.52;0.52;;;1.10;99.90;;;;;;4382898;32;20632;-65
2022/12/12 09:50:23;;;;;;;0.40;0.40;;;1.20;99.90;;;;;;4371809;32;20464;-65
2022/12/12 09:52:50;;;;;;;0.40;0.40;;;1.20;99.90;;;;;;4368006;32;20389;-66
2022/12/12 09:55:30;;;;;;;0.40;0.40;;;1.30;99.90;;;;;;4371697;32;20141;-65
2022/12/12 09:58:05;;;;;;;0.40;0.40;;;1.30;99.90;;;;;;4376407;32;20593;-64
2022/12/12 10:00:35;;;;;;;0.50;0.50;;;1.30;99.90;;;;;;4361057;32;20222;-65
2022/12/12 10:03:13;;;;;;;1.00;0.97;;;1.30;99.90;;;;;;4356931;32;20470;-65
2022/12/12 10:05:49;;;;;;;0.35;0.35;;;1.30;99.90;;;;;;4358340;32;20110;-65
2022/12/12 10:08:29;;;;;;;0.37;0.37;;;1.40;99.90;;;;;;4382109;32;20101;-65
2022/12/12 10:11:03;;;;;;;0.50;0.50;;;1.40;99.90;;;;;;4374456;32;20776;-64
2022/12/12 10:13:30;;;;;;;0.40;0.40;;;1.40;99.90;;;;;;4367850;32;20097;-66
2022/12/12 10:16:03;;;;;;;0.40;0.40;;;1.20;99.90;;;;;;4387546;32;20186;-66
2022/12/12 10:18:34;;;;;;;0.30;0.30;;;1.10;99.90;;;;;;4379892;32;20086;-66
2022/12/12 10:21:05;;;;;;;0.50;0.50;;;1.20;99.90;;;;;;4368327;32;20082;-67
2022/12/12 10:23:40;;;;;;;0.45;0.45;;;1.40;99.90;;;;;;4353126;32;20121;-66
2022/12/12 10:26:13;;;;;;;0.32;0.32;;;1.50;99.90;;;;;;4360767;32;21298;-66
2022/12/12 10:28:39;;;;;;;0.40;0.40;;;1.60;99.90;;;;;;4366356;32;21044;-66
2022/12/12 10:31:26;;;;;;;0.40;0.40;;;1.50;99.90;;;;;;4361406;32;20213;-66
2022/12/12 10:34:12;;;;;;;0.50;0.50;;;1.40;99.90;;;;;;4341258;32;20433;-65
2022/12/12 10:37:18;;;;;;;0.40;0.40;;;1.40;99.90;;;;;;4354749;32;20100;-66
2022/12/12 10:40:23;;;;;;;0.50;0.50;;;1.30;99.90;;;;;;4353305;32;20548;-65
2022/12/12 10:42:59;;;;;;;0.40;0.40;;;1.30;99.90;;;;;;4374158;32;20199;-66
2022/12/12 10:45:46;;;;;;;0.50;0.50;;;1.30;99.90;;;;;;4378962;32;20247;-66
2022/12/12 10:48:11;;;;;;;0.60;0.60;;;1.40;99.90;;;;;;4374881;32;20238;-64
2022/12/12 10:50:43;;;;;;;0.40;0.40;;;1.50;99.90;;;;;;4367084;32;20097;-65
2022/12/12 10:53:10;;;;;;;1.00;0.98;;;1.60;99.90;;;;;;4350933;32;21038;-64
2022/12/12 10:55:49;;;;;;;0.30;0.30;;;1.50;99.90;;;;;;4368539;32;20193;-64
2022/12/12 10:58:16;;;;;;;0.50;0.50;;;1.60;99.90;;;;;;4351964;32;20101;-66
2022/12/12 11:00:44;;;;;;;0.40;0.40;;;1.70;99.90;;;;;;4367022;32;20073;-65
2022/12/12 11:03:33;;;;;;;0.40;0.40;;;1.60;99.90;;;;;;4351311;32;20252;-66
2022/12/12 11:06:04;;;;;;;0.50;0.50;;;1.50;99.90;;;;;;4365060;32;20085;-63
2022/12/12 11:08:32;;;;;;;1.30;0.90;;;1.60;99.90;;;;;;4364347;32;20085;-64
2022/12/12 11:11:16;;;;;;;0.75;0.75;;;1.70;99.90;;;;;;4390145;32;20098;-64
2022/12/12 11:13:49;;;;;;;0.40;0.40;;;1.90;99.90;;;;;;4370341;32;20105;-65
2022/12/12 11:16:18;;;;;;;0.60;0.60;;;1.90;99.90;;;;;;4357398;32;20490;-64
2022/12/12 11:19:04;;;;;;;0.47;0.47;;;2.00;99.90;;;;;;4348471;32;21203;-63
2022/12/12 11:21:32;;;;;;;0.88;0.88;;;2.00;99.90;;;;;;4364963;32;20687;-63
2022/12/12 11:23:59;;;;;;;0.40;0.40;;;2.10;99.90;;;;;;4359602;32;20616;-63
2022/12/12 11:26:27;;;;;;;0.40;0.40;;;2.30;99.90;;;;;;4362188;32;20612;-64
2022/12/12 11:28:57;;;;;;;0.73;0.73;;;2.30;99.90;;;;;;4390601;32;20592;-64
2022/12/12 11:31:26;;;;;;;0.43;0.43;;;2.50;99.90;;;;;;4381555;32;20318;-64
2022/12/12 11:33:55;;;;;;;0.40;0.40;;;2.50;99.90;;;;;;4378883;32;20096;-64
2022/12/12 11:36:30;;;;;;;0.30;0.30;;;2.50;99.90;;;;;;4388633;32;20098;-64
2022/12/12 11:38:58;;;;;;;0.50;0.50;;;2.30;99.90;;;;;;4377207;32;20077;-63
2022/12/12 11:41:23;;;;;;;0.43;0.43;;;2.20;99.90;;;;;;4390561;32;20089;-65
2022/12/12 11:43:51;;;;;;;0.35;0.35;;;2.20;99.90;;;;;;4384637;32;20089;-64
2022/12/12 11:46:22;;;;;;;0.37;0.37;;;2.20;99.90;;;;;;4385605;32;20098;-64
2022/12/12 11:48:53;;;;;;;0.60;0.60;;;2.10;99.90;;;;;;4362806;32;20097;-64
2022/12/12 11:51:42;;;;;;;0.47;0.47;;;2.00;99.90;;;;;;4372467;32;20240;-64
2022/12/12 11:54:29;;;;;;;0.80;0.80;;;2.20;99.90;;;;;;4353384;32;20425;-65
2022/12/12 11:57:04;;;;;;;0.47;0.47;;;2.20;99.90;;;;;;4353447;32;20113;-64
2022/12/12 11:59:53;;;;;;;1.27;1.05;;;2.30;99.90;;;;;;4349351;32;20089;-65
2022/12/12 12:02:59;;;;;;;0.55;0.55;;;1.90;99.90;;;;;;4371145;32;20860;-65
2022/12/12 12:05:26;;;;;;;0.40;0.40;;;1.70;99.90;;;;;;4359520;32;20101;-66
2022/12/12 12:08:14;;;;;;;0.60;0.60;;;1.60;99.90;;;;;;4389260;32;21270;-65
2022/12/12 12:11:03;;;;;;;1.58;1.05;;;1.50;99.90;;;;;;4389422;32;20097;-65
2022/12/12 12:14:09;;;;;;;0.40;0.40;;;1.40;99.90;;;;;;4392792;32;20105;-65
2022/12/12 12:16:52;;;;;;;0.50;0.50;;;1.30;99.90;;;;;;4376900;32;20109;-65
2022/12/12 12:19:32;;;;;;;0.40;0.40;;;1.20;99.90;;;;;;4385237;32;20078;-63
2022/12/12 12:22:19;;;;;;;0.47;0.47;;;1.20;99.90;;;;;;4388071;32;20094;-64
2022/12/12 12:25:03;;;;;;;0.52;0.52;;;1.10;99.90;;;;;;4371412;32;20093;-65
2022/12/12 12:27:38;;;;;;;0.30;0.30;;;1.00;99.90;;;;;;4388124;32;20089;-64
2022/12/12 12:30:14;;;;;;;0.30;0.30;;;0.90;99.90;;;;;;4378024;32;20970;-64
2022/12/12 12:33:04;;;;;;;0.62;0.62;;;0.90;99.90;;;;;;4379712;32;20350;-64
2022/12/12 12:35:32;;;;;;;0.50;0.50;;;0.90;99.90;;;;;;4378471;32;20555;-64
2022/12/12 12:38:05;;;;;;;0.70;0.70;;;1.00;99.90;;;;;;4380295;32;20784;-65
2022/12/12 12:41:10;;;;;;;0.50;0.50;;;1.10;99.90;;;;;;4374551;32;20786;-64
2022/12/12 12:44:02;;;;;;;0.50;0.50;;;1.10;99.90;;;;;;4338323;32;20113;-65
2022/12/12 12:46:47;;;;;;;0.40;0.40;;;1.10;99.90;;;;;;4355560;32;20271;-65
2022/12/12 12:49:19;;;;;;;0.50;0.50;;;1.20;99.90;;;;;;4347449;32;20413;-66
2022/12/12 12:51:51;;;;;;;0.60;0.60;;;1.20;99.90;;;;;;4351035;32;20751;-64
2022/12/12 12:54:31;;;;;;;0.65;0.65;;;1.10;99.90;;;;;;4365320;32;20424;-65
2022/12/12 12:57:06;;;;;;;0.80;0.73;;;1.20;99.90;;;;;;4359960;32;20247;-64
2022/12/12 12:59:38;;;;;;;0.40;0.40;;;1.20;99.90;;;;;;4364677;32;20171;-65
2022/12/12 13:02:27;;;;;;;0.40;0.40;;;1.20;99.90;;;;;;4377023;32;20092;-64
2022/12/12 13:05:05;;;;;;;0.40;0.40;;;1.20;99.90;;;;;;4369567;32;21039;-65
2022/12/12 13:07:55;;;;;;;0.40;0.40;;;1.20;99.90;;;;;;4367328;32;20171;-65
2022/12/12 13:10:24;;;;;;;0.40;0.40;;;1.20;99.90;;;;;;4367811;32;20381;-65
2022/12/12 13:13:13;;;;;;;0.40;0.40;;;1.20;99.90;;;;;;4364160;32;20628;-65
2022/12/12 13:15:46;;;;;;;0.75;0.75;;;1.10;99.90;;;;;;4368227;32;20077;-65
2022/12/12 13:18:14;;;;;;;0.55;0.55;;;1.00;99.90;;;;;;4386875;32;20538;-65
2022/12/12 13:20:54;;;;;;;0.40;0.40;;;1.00;99.90;;;;;;4371359;32;20276;-65
2022/12/12 13:23:36;;;;;;;0.80;0.80;;;1.00;99.90;;;;;;4352925;32;21238;-64